createdAt,value
2022-07-29T00:00:14.524Z,984.87
2022-07-29T00:00:29.498Z,984.89
2022-07-29T00:00:46.120Z,984.88
2022-07-29T00:01:01.745Z,984.89
2022-07-29T00:01:20.633Z,984.88
2022-07-29T00:01:33.701Z,984.87
2022-07-29T00:01:50.778Z,984.89
2022-07-29T00:02:06.285Z,984.89
2022-07-29T00:02:21.892Z,984.89
2022-07-29T00:02:38.458Z,984.88
2022-07-29T00:02:54.129Z,984.9
2022-07-29T00:03:10.556Z,984.91
2022-07-29T00:03:25.687Z,984.91
2022-07-29T00:03:42.607Z,984.91
2022-07-29T00:03:57.933Z,984.9
2022-07-29T00:04:16.522Z,984.88
2022-07-29T00:04:30.344Z,984.88
2022-07-29T00:04:47.037Z,984.88
2022-07-29T00:05:02.296Z,984.87
2022-07-29T00:05:17.052Z,984.88
2022-07-29T00:05:35.335Z,984.88
2022-07-29T00:05:50.039Z,984.89
2022-07-29T00:06:06.142Z,984.87
2022-07-29T00:06:22.115Z,984.86
2022-07-29T00:06:38.543Z,984.87
2022-07-29T00:06:54.319Z,984.88
2022-07-29T00:07:10.974Z,984.88
2022-07-29T00:07:25.636Z,984.87
2022-07-29T00:07:42.619Z,984.88
2022-07-29T00:07:59.824Z,984.87
2022-07-29T00:08:13.756Z,984.86
2022-07-29T00:08:30.247Z,984.87
2022-07-29T00:08:46.868Z,984.88
2022-07-29T00:09:02.173Z,984.87
2022-07-29T00:09:18.167Z,984.87
2022-07-29T00:09:43.044Z,984.86
2022-07-29T00:09:52.103Z,984.87
2022-07-29T00:10:07.878Z,984.88
2022-07-29T00:10:24.680Z,984.87
2022-07-29T00:10:37.093Z,984.88
2022-07-29T00:10:54.179Z,984.87
2022-07-29T00:11:09.706Z,984.85
2022-07-29T00:11:26.390Z,984.85
2022-07-29T00:11:41.513Z,984.84
2022-07-29T00:11:59.802Z,984.83
2022-07-29T00:12:15.480Z,984.82
2022-07-29T00:12:30.499Z,984.82
2022-07-29T00:12:45.837Z,984.81
2022-07-29T00:13:01.748Z,984.81
2022-07-29T00:13:18.513Z,984.81
2022-07-29T00:13:35.173Z,984.81
2022-07-29T00:13:51.157Z,984.8
2022-07-29T00:14:05.538Z,984.81
2022-07-29T00:14:23.619Z,984.81
2022-07-29T00:14:37.867Z,984.79
2022-07-29T00:14:54.916Z,984.8
2022-07-29T00:15:09.496Z,984.8
2022-07-29T00:15:26.934Z,984.81
2022-07-29T00:15:42.046Z,984.82
2022-07-29T00:15:57.089Z,984.82
2022-07-29T00:16:14.537Z,984.82
2022-07-29T00:16:31.140Z,984.83
2022-07-29T00:16:46.090Z,984.82
2022-07-29T00:17:02.318Z,984.82
2022-07-29T00:17:18.965Z,984.82
2022-07-29T00:17:34.124Z,984.82
2022-07-29T00:17:55.455Z,984.83
2022-07-29T00:18:06.365Z,984.82
2022-07-29T00:18:22.700Z,984.82
2022-07-29T00:18:38.142Z,984.82
2022-07-29T00:18:54.773Z,984.82
2022-07-29T00:19:09.933Z,984.83
2022-07-29T00:19:25.858Z,984.83
2022-07-29T00:19:45.554Z,984.83
2022-07-29T00:19:57.603Z,984.82
2022-07-29T00:20:14.135Z,984.83
2022-07-29T00:20:29.754Z,984.84
2022-07-29T00:20:46.183Z,984.84
2022-07-29T00:21:04.299Z,984.86
2022-07-29T00:21:18.372Z,984.84
2022-07-29T00:21:33.730Z,984.84
2022-07-29T00:21:49.613Z,984.84
2022-07-29T00:22:06.123Z,984.83
2022-07-29T00:22:21.903Z,984.83
2022-07-29T00:22:39.440Z,984.82
2022-07-29T00:22:53.798Z,984.82
2022-07-29T00:23:13.606Z,984.82
2022-07-29T00:23:30.637Z,984.83
2022-07-29T00:23:42.428Z,984.82
2022-07-29T00:23:58.295Z,984.83
2022-07-29T00:24:14.653Z,984.83
2022-07-29T00:24:30.139Z,984.84
2022-07-29T00:24:45.207Z,984.84
2022-07-29T00:25:02.434Z,984.83
2022-07-29T00:25:17.657Z,984.83
2022-07-29T00:25:34.136Z,984.83
2022-07-29T00:25:49.498Z,984.83
2022-07-29T00:26:06.856Z,984.84
2022-07-29T00:26:22.167Z,984.83
2022-07-29T00:26:38.984Z,984.84
2022-07-29T00:26:55.115Z,984.84
2022-07-29T00:27:11.228Z,984.85
2022-07-29T00:27:25.710Z,984.86
2022-07-29T00:27:41.274Z,984.85
2022-07-29T00:27:58.278Z,984.84
2022-07-29T00:28:13.850Z,984.85
2022-07-29T00:28:30.448Z,984.86
2022-07-29T00:28:45.391Z,984.86
2022-07-29T00:29:32.323Z,984.87
2022-07-29T00:29:33.572Z,984.88
2022-07-29T00:29:34.703Z,984.86
2022-07-29T00:29:50.523Z,984.87
2022-07-29T00:30:05.539Z,984.87
2022-07-29T00:30:21.770Z,984.88
2022-07-29T00:30:37.621Z,984.89
2022-07-29T00:30:54.138Z,984.86
2022-07-29T00:31:10.220Z,984.87
2022-07-29T00:31:26.480Z,984.87
2022-07-29T00:31:42.251Z,984.88
2022-07-29T00:31:57.743Z,984.86
2022-07-29T00:32:14.453Z,984.86
2022-07-29T00:32:30.559Z,984.86
2022-07-29T00:32:47.821Z,984.85
2022-07-29T00:33:01.566Z,984.85
2022-07-29T00:33:17.996Z,984.84
2022-07-29T00:33:33.584Z,984.85
2022-07-29T00:33:50.640Z,984.85
2022-07-29T00:34:05.302Z,984.84
2022-07-29T00:34:22.133Z,984.84
2022-07-29T00:34:37.835Z,984.83
2022-07-29T00:34:53.034Z,984.83
2022-07-29T00:35:10.993Z,984.84
2022-07-29T00:35:25.365Z,984.83
2022-07-29T00:35:42.139Z,984.83
2022-07-29T00:35:57.975Z,984.81
2022-07-29T00:36:13.728Z,984.82
2022-07-29T00:36:30.139Z,984.81
2022-07-29T00:36:46.314Z,984.81
2022-07-29T00:37:02.124Z,984.8
2022-07-29T00:37:20.020Z,984.81
2022-07-29T00:37:35.733Z,984.8
2022-07-29T00:37:48.941Z,984.79
2022-07-29T00:38:06.542Z,984.79
2022-07-29T00:38:21.264Z,984.78
2022-07-29T00:38:38.961Z,984.78
2022-07-29T00:38:53.736Z,984.78
2022-07-29T00:39:10.148Z,984.79
2022-07-29T00:39:25.507Z,984.8
2022-07-29T00:39:42.614Z,984.79
2022-07-29T00:39:57.873Z,984.79
2022-07-29T00:40:13.019Z,984.78
2022-07-29T00:40:30.295Z,984.78
2022-07-29T00:40:45.202Z,984.79
2022-07-29T00:41:01.857Z,984.79
2022-07-29T00:41:17.722Z,984.8
2022-07-29T00:41:34.496Z,984.8
2022-07-29T00:41:50.053Z,984.8
2022-07-29T00:42:06.059Z,984.81
2022-07-29T00:42:21.711Z,984.81
2022-07-29T00:42:38.195Z,984.81
2022-07-29T00:42:54.016Z,984.83
2022-07-29T00:43:09.120Z,984.83
2022-07-29T00:43:25.983Z,984.84
2022-07-29T00:43:42.905Z,984.85
2022-07-29T00:43:58.641Z,984.85
2022-07-29T00:44:14.257Z,984.85
2022-07-29T00:44:30.241Z,984.85
2022-07-29T00:44:45.616Z,984.87
2022-07-29T00:45:02.719Z,984.88
2022-07-29T00:45:18.682Z,984.88
2022-07-29T00:45:34.333Z,984.87
2022-07-29T00:45:50.334Z,984.87
2022-07-29T00:46:05.626Z,984.88
2022-07-29T00:46:22.036Z,984.88
2022-07-29T00:46:37.212Z,984.89
2022-07-29T00:46:54.090Z,984.89
2022-07-29T00:47:09.961Z,984.88
2022-07-29T00:47:26.258Z,984.88
2022-07-29T00:47:43.031Z,984.88
2022-07-29T00:47:58.956Z,984.88
2022-07-29T00:48:14.191Z,984.88
2022-07-29T00:48:28.978Z,984.89
2022-07-29T00:48:46.227Z,984.88
2022-07-29T00:49:02.016Z,984.88
2022-07-29T00:49:19.342Z,984.89
2022-07-29T00:49:35.139Z,984.89
2022-07-29T00:49:50.008Z,984.88
2022-07-29T00:50:05.390Z,984.88
2022-07-29T00:50:22.384Z,984.87
2022-07-29T00:50:37.933Z,984.87
2022-07-29T00:50:53.420Z,984.87
2022-07-29T00:51:10.777Z,984.87
2022-07-29T00:51:25.261Z,984.88
2022-07-29T00:51:42.939Z,984.88
2022-07-29T00:51:57.807Z,984.87
2022-07-29T00:52:17.100Z,984.87
2022-07-29T00:52:29.664Z,984.87
2022-07-29T00:52:45.934Z,984.88
2022-07-29T00:53:01.860Z,984.87
2022-07-29T00:53:18.230Z,984.88
2022-07-29T00:53:36.288Z,984.87
2022-07-29T00:53:49.043Z,984.88
2022-07-29T00:54:06.128Z,984.87
2022-07-29T00:54:21.365Z,984.87
2022-07-29T00:54:44.065Z,984.87
2022-07-29T00:54:53.187Z,984.89
2022-07-29T00:55:10.476Z,984.89
2022-07-29T00:55:25.617Z,984.9
2022-07-29T00:55:42.275Z,984.9
2022-07-29T00:55:59.228Z,984.9
2022-07-29T00:56:15.908Z,984.91
2022-07-29T00:56:29.418Z,984.91
2022-07-29T00:56:45.532Z,984.91
2022-07-29T00:57:02.020Z,984.9
2022-07-29T00:57:18.449Z,984.91
2022-07-29T00:57:33.956Z,984.91
2022-07-29T00:57:49.817Z,984.9
2022-07-29T00:58:06.317Z,984.9
2022-07-29T00:58:21.521Z,984.9
2022-07-29T00:58:38.499Z,984.89
2022-07-29T00:58:53.393Z,984.89
2022-07-29T00:59:09.120Z,984.88
2022-07-29T00:59:25.853Z,984.87
2022-07-29T00:59:42.920Z,984.88
2022-07-29T00:59:57.810Z,984.87
2022-07-29T01:00:14.884Z,984.87
2022-07-29T01:00:30.242Z,984.86
2022-07-29T01:00:45.545Z,984.86
2022-07-29T01:01:01.932Z,984.87
2022-07-29T01:01:17.691Z,984.86
2022-07-29T01:01:34.356Z,984.87
2022-07-29T01:01:49.411Z,984.88
2022-07-29T01:02:05.646Z,984.89
2022-07-29T01:02:21.767Z,984.88
2022-07-29T01:02:37.191Z,984.87
2022-07-29T01:02:54.465Z,984.88
2022-07-29T01:03:09.740Z,984.88
2022-07-29T01:03:25.803Z,984.87
2022-07-29T01:03:41.260Z,984.88
2022-07-29T01:03:58.038Z,984.88
2022-07-29T01:04:13.666Z,984.87
2022-07-29T01:04:28.969Z,984.87
2022-07-29T01:04:45.501Z,984.88
2022-07-29T01:05:01.008Z,984.86
2022-07-29T01:05:17.606Z,984.85
2022-07-29T01:05:48.449Z,984.86
2022-07-29T01:05:51.881Z,984.85
2022-07-29T01:06:05.658Z,984.85
2022-07-29T01:06:22.144Z,984.85
2022-07-29T01:06:38.005Z,984.85
2022-07-29T01:06:54.777Z,984.84
2022-07-29T01:07:10.047Z,984.85
2022-07-29T01:07:26.093Z,984.84
2022-07-29T01:07:42.785Z,984.83
2022-07-29T01:07:57.323Z,984.83
2022-07-29T01:08:15.168Z,984.82
2022-07-29T01:08:28.996Z,984.83
2022-07-29T01:08:46.340Z,984.82
2022-07-29T01:09:01.901Z,984.81
2022-07-29T01:09:18.359Z,984.82
2022-07-29T01:09:42.061Z,984.83
2022-07-29T01:09:50.329Z,984.83
2022-07-29T01:10:10.976Z,984.83
2022-07-29T01:10:21.390Z,984.85
2022-07-29T01:10:38.539Z,984.85
2022-07-29T01:10:53.374Z,984.84
2022-07-29T01:11:09.925Z,984.84
2022-07-29T01:11:25.936Z,984.83
2022-07-29T01:11:42.686Z,984.83
2022-07-29T01:11:57.689Z,984.84
2022-07-29T01:12:15.748Z,984.84
2022-07-29T01:12:29.754Z,984.84
2022-07-29T01:12:45.498Z,984.84
2022-07-29T01:13:02.895Z,984.84
2022-07-29T01:13:16.863Z,984.85
2022-07-29T01:13:34.182Z,984.84
2022-07-29T01:13:50.111Z,984.85
2022-07-29T01:14:05.616Z,984.86
2022-07-29T01:14:21.879Z,984.84
2022-07-29T01:14:38.168Z,984.83
2022-07-29T01:14:53.404Z,984.83
2022-07-29T01:15:11.790Z,984.84
2022-07-29T01:15:25.763Z,984.84
2022-07-29T01:15:48.870Z,984.82
2022-07-29T01:15:59.664Z,984.81
2022-07-29T01:16:13.601Z,984.81
2022-07-29T01:16:30.180Z,984.81
2022-07-29T01:16:45.336Z,984.81
2022-07-29T01:17:02.168Z,984.82
2022-07-29T01:17:17.642Z,984.82
2022-07-29T01:17:34.624Z,984.81
2022-07-29T01:17:52.592Z,984.82
2022-07-29T01:18:04.879Z,984.82
2022-07-29T01:18:22.964Z,984.82
2022-07-29T01:18:37.379Z,984.82
2022-07-29T01:18:53.539Z,984.82
2022-07-29T01:19:09.565Z,984.82
2022-07-29T01:19:25.808Z,984.84
2022-07-29T01:19:41.461Z,984.83
2022-07-29T01:19:58.124Z,984.84
2022-07-29T01:20:14.662Z,984.84
2022-07-29T01:20:31.262Z,984.84
2022-07-29T01:20:45.985Z,984.83
2022-07-29T01:21:01.620Z,984.85
2022-07-29T01:21:18.254Z,984.83
2022-07-29T01:21:32.969Z,984.85
2022-07-29T01:21:50.453Z,984.83
2022-07-29T01:22:06.863Z,984.82
2022-07-29T01:22:21.769Z,984.84
2022-07-29T01:22:37.357Z,984.85
2022-07-29T01:22:53.801Z,984.84
2022-07-29T01:23:09.263Z,984.83
2022-07-29T01:23:25.413Z,984.82
2022-07-29T01:23:41.513Z,984.84
2022-07-29T01:23:57.422Z,984.84
2022-07-29T01:24:13.965Z,984.83
2022-07-29T01:24:29.556Z,984.84
2022-07-29T01:24:45.773Z,984.84
2022-07-29T01:25:01.601Z,984.83
2022-07-29T01:25:17.798Z,984.85
2022-07-29T01:25:33.570Z,984.86
2022-07-29T01:25:53.199Z,984.86
2022-07-29T01:26:05.350Z,984.86
2022-07-29T01:26:22.823Z,984.84
2022-07-29T01:26:37.634Z,984.84
2022-07-29T01:26:52.887Z,984.84
2022-07-29T01:27:10.659Z,984.86
2022-07-29T01:27:25.239Z,984.85
2022-07-29T01:27:42.255Z,984.84
2022-07-29T01:27:57.101Z,984.83
2022-07-29T01:28:14.140Z,984.82
2022-07-29T01:28:32.059Z,984.82
2022-07-29T01:28:47.419Z,984.84
2022-07-29T01:29:02.473Z,984.84
2022-07-29T01:29:17.516Z,984.84
2022-07-29T01:29:36.042Z,984.83
2022-07-29T01:29:49.285Z,984.83
2022-07-29T01:30:06.260Z,984.8
2022-07-29T01:30:21.830Z,984.81
2022-07-29T01:30:42.972Z,984.81
2022-07-29T01:30:55.044Z,984.82
2022-07-29T01:31:10.730Z,984.82
2022-07-29T01:31:26.497Z,984.83
2022-07-29T01:31:49.144Z,984.84
2022-07-29T01:31:59.334Z,984.85
2022-07-29T01:32:27.730Z,984.83
2022-07-29T01:32:29.702Z,984.83
2022-07-29T01:32:45.103Z,984.84
2022-07-29T01:33:02.105Z,984.84
2022-07-29T01:33:17.257Z,984.84
2022-07-29T01:33:33.621Z,984.83
2022-07-29T01:33:49.217Z,984.83
2022-07-29T01:34:07.367Z,984.84
2022-07-29T01:34:21.511Z,984.85
2022-07-29T01:34:36.594Z,984.84
2022-07-29T01:34:53.807Z,984.85
2022-07-29T01:35:10.343Z,984.85
2022-07-29T01:35:26.268Z,984.85
2022-07-29T01:35:41.301Z,984.86
2022-07-29T01:35:57.673Z,984.86
2022-07-29T01:36:13.525Z,984.88
2022-07-29T01:36:31.098Z,984.88
2022-07-29T01:36:45.986Z,984.87
2022-07-29T01:37:00.861Z,984.88
2022-07-29T01:37:18.172Z,984.89
2022-07-29T01:37:33.523Z,984.9
2022-07-29T01:37:49.509Z,984.89
2022-07-29T01:38:07.543Z,984.9
2022-07-29T01:38:23.218Z,984.9
2022-07-29T01:38:38.878Z,984.91
2022-07-29T01:38:54.553Z,984.91
2022-07-29T01:39:11.003Z,984.9
2022-07-29T01:39:27.679Z,984.89
2022-07-29T01:39:41.982Z,984.9
2022-07-29T01:39:56.893Z,984.91
2022-07-29T01:40:13.880Z,984.9
2022-07-29T01:40:29.510Z,984.89
2022-07-29T01:40:46.264Z,984.89
2022-07-29T01:41:01.796Z,984.88
2022-07-29T01:41:19.036Z,984.87
2022-07-29T01:41:33.944Z,984.87
2022-07-29T01:41:50.317Z,984.86
2022-07-29T01:42:05.318Z,984.86
2022-07-29T01:42:20.924Z,984.86
2022-07-29T01:42:37.997Z,984.85
2022-07-29T01:42:54.133Z,984.85
2022-07-29T01:43:10.259Z,984.84
2022-07-29T01:43:25.002Z,984.83
2022-07-29T01:43:41.781Z,984.83
2022-07-29T01:43:57.547Z,984.84
2022-07-29T01:44:14.665Z,984.84
2022-07-29T01:44:29.201Z,984.84
2022-07-29T01:44:46.209Z,984.84
2022-07-29T01:45:01.748Z,984.83
2022-07-29T01:45:16.977Z,984.84
2022-07-29T01:45:33.492Z,984.85
2022-07-29T01:45:48.852Z,984.86
2022-07-29T01:46:06.289Z,984.86
2022-07-29T01:46:21.446Z,984.85
2022-07-29T01:46:37.872Z,984.86
2022-07-29T01:46:53.419Z,984.85
2022-07-29T01:47:09.971Z,984.86
2022-07-29T01:47:27.060Z,984.85
2022-07-29T01:47:41.054Z,984.85
2022-07-29T01:47:57.470Z,984.87
2022-07-29T01:48:13.381Z,984.87
2022-07-29T01:48:29.657Z,984.88
2022-07-29T01:48:45.336Z,984.88
2022-07-29T01:49:01.603Z,984.87
2022-07-29T01:49:17.154Z,984.87
2022-07-29T01:49:34.050Z,984.88
2022-07-29T01:49:50.141Z,984.88
2022-07-29T01:50:06.034Z,984.88
2022-07-29T01:50:21.345Z,984.88
2022-07-29T01:50:36.852Z,984.89
2022-07-29T01:50:53.661Z,984.9
2022-07-29T01:51:08.903Z,984.91
2022-07-29T01:51:27.448Z,984.9
2022-07-29T01:51:41.065Z,984.89
2022-07-29T01:51:58.796Z,984.88
2022-07-29T01:52:13.306Z,984.89
2022-07-29T01:52:30.551Z,984.88
2022-07-29T01:52:45.637Z,984.88
2022-07-29T01:53:02.026Z,984.88
2022-07-29T01:53:17.624Z,984.89
2022-07-29T01:53:34.834Z,984.88
2022-07-29T01:53:49.641Z,984.87
2022-07-29T01:54:05.061Z,984.87
2022-07-29T01:54:22.190Z,984.86
2022-07-29T01:54:37.079Z,984.87
2022-07-29T01:54:54.431Z,984.87
2022-07-29T01:55:09.443Z,984.87
2022-07-29T01:55:27.669Z,984.86
2022-07-29T01:55:41.810Z,984.86
2022-07-29T01:55:56.536Z,984.88
2022-07-29T01:56:14.040Z,984.87
2022-07-29T01:56:29.834Z,984.87
2022-07-29T01:56:45.784Z,984.88
2022-07-29T01:57:01.189Z,984.86
2022-07-29T01:57:17.853Z,984.86
2022-07-29T01:57:32.850Z,984.86
2022-07-29T01:57:50.146Z,984.85
2022-07-29T01:58:05.547Z,984.85
2022-07-29T01:58:22.472Z,984.85
2022-07-29T01:58:37.865Z,984.86
2022-07-29T01:58:52.696Z,984.86
2022-07-29T01:59:09.994Z,984.86
2022-07-29T01:59:26.534Z,984.85
2022-07-29T01:59:42.333Z,984.85
2022-07-29T01:59:57.009Z,984.86
2022-07-29T02:00:14.390Z,984.86
2022-07-29T02:00:30.271Z,984.86
2022-07-29T02:00:45.646Z,984.87
2022-07-29T02:01:01.943Z,984.86
2022-07-29T02:01:16.967Z,984.85
2022-07-29T02:01:33.292Z,984.85
2022-07-29T02:01:49.037Z,984.87
2022-07-29T02:02:06.110Z,984.89
2022-07-29T02:02:20.724Z,984.89
2022-07-29T02:02:37.997Z,984.88
2022-07-29T02:02:53.501Z,984.89
2022-07-29T02:03:10.321Z,984.9
2022-07-29T02:03:27.083Z,984.91
2022-07-29T02:03:42.411Z,984.91
2022-07-29T02:03:59.181Z,984.91
2022-07-29T02:04:26.700Z,984.91
2022-07-29T02:04:30.335Z,984.91
2022-07-29T02:04:45.312Z,984.9
2022-07-29T02:05:02.278Z,984.89
2022-07-29T02:05:18.326Z,984.91
2022-07-29T02:05:35.622Z,984.9
2022-07-29T02:05:49.708Z,984.91
2022-07-29T02:06:07.863Z,984.91
2022-07-29T02:06:21.933Z,984.92
2022-07-29T02:06:38.370Z,984.91
2022-07-29T02:06:53.916Z,984.91
2022-07-29T02:07:08.527Z,984.91
2022-07-29T02:07:25.471Z,984.91
2022-07-29T02:07:41.589Z,984.9
2022-07-29T02:07:58.306Z,984.91
2022-07-29T02:08:13.758Z,984.91
2022-07-29T02:08:29.834Z,984.91
2022-07-29T02:08:44.915Z,984.92
2022-07-29T02:09:02.058Z,984.93
2022-07-29T02:09:17.520Z,984.92
2022-07-29T02:09:33.830Z,984.93
2022-07-29T02:09:51.090Z,984.93
2022-07-29T02:10:04.897Z,984.93
2022-07-29T02:10:21.701Z,984.93
2022-07-29T02:10:36.596Z,984.93
2022-07-29T02:10:53.666Z,984.93
2022-07-29T02:11:09.493Z,984.93
2022-07-29T02:11:26.330Z,984.94
2022-07-29T02:11:40.994Z,984.94
2022-07-29T02:11:58.631Z,984.93
2022-07-29T02:12:13.181Z,984.93
2022-07-29T02:12:29.603Z,984.94
2022-07-29T02:12:50.876Z,984.94
2022-07-29T02:13:00.725Z,984.95
2022-07-29T02:13:18.137Z,984.95
2022-07-29T02:13:33.103Z,984.94
2022-07-29T02:13:49.612Z,984.93
2022-07-29T02:14:08.367Z,984.93
2022-07-29T02:14:22.317Z,984.93
2022-07-29T02:14:37.797Z,984.92
2022-07-29T02:14:53.169Z,984.91
2022-07-29T02:15:10.793Z,984.92
2022-07-29T02:15:25.086Z,984.92
2022-07-29T02:15:41.598Z,984.92
2022-07-29T02:15:57.269Z,984.92
2022-07-29T02:16:13.624Z,984.93
2022-07-29T02:16:30.104Z,984.93
2022-07-29T02:16:46.185Z,984.93
2022-07-29T02:17:01.793Z,984.93
2022-07-29T02:17:18.471Z,984.92
2022-07-29T02:17:33.618Z,984.91
2022-07-29T02:17:48.586Z,984.9
2022-07-29T02:18:05.952Z,984.89
2022-07-29T02:18:21.323Z,984.9
2022-07-29T02:18:37.494Z,984.92
2022-07-29T02:18:59.283Z,984.93
2022-07-29T02:19:09.922Z,984.93
2022-07-29T02:19:25.291Z,984.92
2022-07-29T02:19:41.949Z,984.92
2022-07-29T02:19:56.977Z,984.91
2022-07-29T02:20:14.431Z,984.92
2022-07-29T02:20:29.343Z,984.94
2022-07-29T02:20:44.607Z,984.94
2022-07-29T02:21:01.608Z,984.95
2022-07-29T02:21:17.492Z,984.95
2022-07-29T02:21:34.031Z,984.95
2022-07-29T02:21:48.683Z,984.97
2022-07-29T02:22:07.927Z,984.95
2022-07-29T02:22:22.539Z,984.95
2022-07-29T02:22:37.739Z,984.96
2022-07-29T02:22:53.328Z,984.95
2022-07-29T02:23:08.879Z,984.95
2022-07-29T02:23:26.590Z,984.95
2022-07-29T02:23:45.008Z,984.95
2022-07-29T02:23:59.144Z,984.96
2022-07-29T02:24:16.227Z,984.95
2022-07-29T02:24:31.154Z,984.95
2022-07-29T02:24:45.307Z,984.94
2022-07-29T02:25:01.866Z,984.94
2022-07-29T02:25:17.266Z,984.94
2022-07-29T02:25:37.278Z,984.93
2022-07-29T02:25:50.449Z,984.94
2022-07-29T02:26:04.788Z,984.93
2022-07-29T02:26:21.571Z,984.93
2022-07-29T02:26:38.410Z,984.95
2022-07-29T02:26:54.141Z,984.94
2022-07-29T02:27:09.390Z,984.93
2022-07-29T02:27:26.136Z,984.93
2022-07-29T02:27:41.008Z,984.91
2022-07-29T02:27:58.326Z,984.92
2022-07-29T02:28:14.522Z,984.93
2022-07-29T02:28:29.104Z,984.92
2022-07-29T02:28:45.748Z,984.93
2022-07-29T02:29:00.872Z,984.91
2022-07-29T02:29:17.727Z,984.91
2022-07-29T02:29:33.514Z,984.9
2022-07-29T02:29:50.149Z,984.89
2022-07-29T02:30:04.630Z,984.89
2022-07-29T02:30:21.977Z,984.89
2022-07-29T02:30:37.606Z,984.88
2022-07-29T02:30:55.804Z,984.88
2022-07-29T02:31:09.578Z,984.86
2022-07-29T02:31:24.781Z,984.86
2022-07-29T02:31:42.431Z,984.86
2022-07-29T02:31:56.941Z,984.85
2022-07-29T02:32:13.461Z,984.86
2022-07-29T02:32:29.510Z,984.86
2022-07-29T02:32:47.219Z,984.87
2022-07-29T02:33:00.945Z,984.86
2022-07-29T02:33:19.565Z,984.86
2022-07-29T02:33:33.027Z,984.86
2022-07-29T02:33:49.112Z,984.86
2022-07-29T02:34:06.020Z,984.85
2022-07-29T02:34:20.509Z,984.85
2022-07-29T02:34:37.357Z,984.84
2022-07-29T02:34:53.319Z,984.85
2022-07-29T02:35:10.133Z,984.86
2022-07-29T02:35:25.246Z,984.85
2022-07-29T02:35:41.850Z,984.85
2022-07-29T02:35:56.881Z,984.85
2022-07-29T02:36:15.619Z,984.85
2022-07-29T02:36:29.307Z,984.86
2022-07-29T02:36:45.192Z,984.86
2022-07-29T02:37:01.193Z,984.85
2022-07-29T02:37:18.571Z,984.84
2022-07-29T02:37:33.764Z,984.84
2022-07-29T02:37:49.587Z,984.84
2022-07-29T02:38:05.741Z,984.83
2022-07-29T02:38:21.625Z,984.83
2022-07-29T02:38:37.699Z,984.83
2022-07-29T02:38:54.851Z,984.82
2022-07-29T02:39:11.662Z,984.83
2022-07-29T02:39:24.996Z,984.83
2022-07-29T02:39:40.979Z,984.84
2022-07-29T02:39:57.995Z,984.84
2022-07-29T02:40:13.214Z,984.83
2022-07-29T02:40:29.588Z,984.84
2022-07-29T02:40:44.879Z,984.83
2022-07-29T02:41:03.440Z,984.83
2022-07-29T02:41:18.103Z,984.82
2022-07-29T02:41:35.667Z,984.82
2022-07-29T02:41:49.841Z,984.82
2022-07-29T02:42:04.895Z,984.81
2022-07-29T02:42:21.554Z,984.81
2022-07-29T02:42:38.293Z,984.82
2022-07-29T02:42:53.589Z,984.83
2022-07-29T02:43:09.014Z,984.83
2022-07-29T02:43:27.471Z,984.83
2022-07-29T02:43:41.218Z,984.83
2022-07-29T02:43:57.899Z,984.83
2022-07-29T02:44:14.338Z,984.83
2022-07-29T02:44:34.499Z,984.83
2022-07-29T02:44:45.547Z,984.82
2022-07-29T02:45:02.146Z,984.82
2022-07-29T02:45:18.571Z,984.82
2022-07-29T02:45:33.179Z,984.82
2022-07-29T02:45:51.827Z,984.83
2022-07-29T02:46:05.244Z,984.83
2022-07-29T02:46:28.921Z,984.82
2022-07-29T02:46:36.956Z,984.81
2022-07-29T02:46:53.905Z,984.8
2022-07-29T02:47:10.580Z,984.81
2022-07-29T02:47:25.143Z,984.81
2022-07-29T02:47:42.239Z,984.8
2022-07-29T02:47:56.721Z,984.8
2022-07-29T02:48:13.898Z,984.79
2022-07-29T02:48:29.660Z,984.81
2022-07-29T02:48:45.708Z,984.81
2022-07-29T02:49:00.732Z,984.81
2022-07-29T02:49:18.234Z,984.79
2022-07-29T02:49:33.377Z,984.79
2022-07-29T02:49:50.380Z,984.79
2022-07-29T02:50:05.560Z,984.8
2022-07-29T02:50:20.590Z,984.79
2022-07-29T02:50:37.861Z,984.8
2022-07-29T02:50:54.041Z,984.8
2022-07-29T02:51:09.476Z,984.79
2022-07-29T02:51:44.102Z,984.79
2022-07-29T02:51:44.762Z,984.8
2022-07-29T02:51:57.023Z,984.8
2022-07-29T02:52:14.288Z,984.8
2022-07-29T02:52:28.853Z,984.81
2022-07-29T02:52:44.957Z,984.8
2022-07-29T02:53:02.591Z,984.8
2022-07-29T02:53:17.128Z,984.8
2022-07-29T02:53:34.403Z,984.81
2022-07-29T02:53:49.036Z,984.81
2022-07-29T02:54:05.655Z,984.8
2022-07-29T02:54:20.710Z,984.8
2022-07-29T02:54:38.142Z,984.8
2022-07-29T02:54:53.651Z,984.8
2022-07-29T02:55:11.189Z,984.8
2022-07-29T02:55:25.122Z,984.81
2022-07-29T02:55:40.761Z,984.79
2022-07-29T02:55:57.411Z,984.81
2022-07-29T02:56:12.641Z,984.8
2022-07-29T02:56:29.185Z,984.8
2022-07-29T02:56:45.005Z,984.79
2022-07-29T02:57:01.442Z,984.79
2022-07-29T02:57:17.099Z,984.79
2022-07-29T02:57:33.921Z,984.8
2022-07-29T02:57:54.438Z,984.79
2022-07-29T02:58:05.423Z,984.79
2022-07-29T02:58:22.523Z,984.79
2022-07-29T02:58:37.149Z,984.8
2022-07-29T02:58:53.203Z,984.78
2022-07-29T02:59:08.586Z,984.79
2022-07-29T02:59:25.815Z,984.8
2022-07-29T02:59:40.623Z,984.8
2022-07-29T02:59:57.514Z,984.8
2022-07-29T03:00:13.627Z,984.81
2022-07-29T03:00:30.893Z,984.81
2022-07-29T03:00:44.866Z,984.81
2022-07-29T03:01:00.527Z,984.81
2022-07-29T03:01:21.754Z,984.81
2022-07-29T03:01:36.251Z,984.82
2022-07-29T03:01:50.450Z,984.83
2022-07-29T03:02:04.759Z,984.83
2022-07-29T03:02:21.811Z,984.83
2022-07-29T03:02:36.651Z,984.83
2022-07-29T03:02:54.269Z,984.84
2022-07-29T03:03:08.992Z,984.83
2022-07-29T03:03:26.026Z,984.84
2022-07-29T03:03:41.503Z,984.84
2022-07-29T03:03:57.799Z,984.85
2022-07-29T03:04:13.635Z,984.84
2022-07-29T03:04:29.194Z,984.83
2022-07-29T03:04:45.564Z,984.82
2022-07-29T03:05:01.140Z,984.83
2022-07-29T03:05:17.376Z,984.83
2022-07-29T03:05:33.336Z,984.84
2022-07-29T03:05:49.503Z,984.85
2022-07-29T03:06:05.392Z,984.86
2022-07-29T03:06:28.161Z,984.87
2022-07-29T03:06:38.940Z,984.86
2022-07-29T03:06:52.367Z,984.87
2022-07-29T03:07:09.533Z,984.88
2022-07-29T03:07:25.354Z,984.88
2022-07-29T03:07:42.239Z,984.89
2022-07-29T03:07:56.989Z,984.89
2022-07-29T03:08:14.124Z,984.89
2022-07-29T03:08:29.168Z,984.9
2022-07-29T03:08:46.020Z,984.91
2022-07-29T03:09:01.759Z,984.91
2022-07-29T03:09:16.996Z,984.93
2022-07-29T03:09:33.812Z,984.92
2022-07-29T03:09:50.526Z,984.93
2022-07-29T03:10:06.437Z,984.94
2022-07-29T03:10:20.855Z,984.95
2022-07-29T03:10:37.754Z,984.95
2022-07-29T03:10:52.934Z,984.96
2022-07-29T03:11:10.178Z,984.94
2022-07-29T03:11:40.108Z,984.94
2022-07-29T03:11:46.166Z,984.93
2022-07-29T03:11:57.066Z,984.93
2022-07-29T03:12:12.874Z,984.93
2022-07-29T03:12:29.510Z,984.93
2022-07-29T03:12:48.474Z,984.92
2022-07-29T03:13:01.708Z,984.92
2022-07-29T03:13:16.648Z,984.92
2022-07-29T03:13:33.696Z,984.92
2022-07-29T03:13:50.785Z,984.93
2022-07-29T03:14:07.429Z,984.93
2022-07-29T03:14:22.430Z,984.93
2022-07-29T03:14:37.016Z,984.94
2022-07-29T03:14:52.965Z,984.93
2022-07-29T03:15:08.836Z,984.95
2022-07-29T03:15:26.009Z,984.94
2022-07-29T03:15:41.207Z,984.95
2022-07-29T03:15:57.751Z,984.96
2022-07-29T03:16:15.504Z,984.95
2022-07-29T03:16:29.815Z,984.94
2022-07-29T03:16:44.770Z,984.94
2022-07-29T03:17:02.282Z,984.95
2022-07-29T03:17:17.736Z,984.94
2022-07-29T03:17:33.401Z,984.94
2022-07-29T03:17:49.692Z,984.95
2022-07-29T03:18:05.252Z,984.95
2022-07-29T03:18:21.852Z,984.94
2022-07-29T03:18:36.915Z,984.93
2022-07-29T03:18:53.666Z,984.92
2022-07-29T03:19:09.948Z,984.92
2022-07-29T03:19:25.826Z,984.92
2022-07-29T03:19:41.377Z,984.91
2022-07-29T03:19:57.036Z,984.92
2022-07-29T03:20:13.258Z,984.91